sensor_id;sensor_type;location;lat;lon;timestamp;temperature;humidity
3699;DHT22;1865;50.918;7.092;2022-08-03T00:01:27;24.60;50.00
3699;DHT22;1865;50.918;7.092;2022-08-03T00:03:52;24.60;50.00
3699;DHT22;1865;50.918;7.092;2022-08-03T00:06:18;24.60;49.90
3699;DHT22;1865;50.918;7.092;2022-08-03T00:08:48;24.60;50.00
3699;DHT22;1865;50.918;7.092;2022-08-03T00:11:18;24.50;50.20
3699;DHT22;1865;50.918;7.092;2022-08-03T00:13:45;24.50;50.10
3699;DHT22;1865;50.918;7.092;2022-08-03T00:16:11;24.40;50.30
3699;DHT22;1865;50.918;7.092;2022-08-03T00:18:38;24.40;50.20
3699;DHT22;1865;50.918;7.092;2022-08-03T00:21:06;24.40;50.10
3699;DHT22;1865;50.918;7.092;2022-08-03T00:23:37;24.50;50.00
3699;DHT22;1865;50.918;7.092;2022-08-03T00:26:03;24.40;50.20
3699;DHT22;1865;50.918;7.092;2022-08-03T00:28:28;24.30;50.40
3699;DHT22;1865;50.918;7.092;2022-08-03T00:30:55;24.30;50.30
3699;DHT22;1865;50.918;7.092;2022-08-03T00:33:22;24.30;50.40
3699;DHT22;1865;50.918;7.092;2022-08-03T00:35:49;24.30;50.50
3699;DHT22;1865;50.918;7.092;2022-08-03T00:38:15;24.20;50.50
3699;DHT22;1865;50.918;7.092;2022-08-03T00:40:41;24.20;50.70
3699;DHT22;1865;50.918;7.092;2022-08-03T00:43:07;24.10;51.30
3699;DHT22;1865;50.918;7.092;2022-08-03T00:45:36;24.10;51.40
3699;DHT22;1865;50.918;7.092;2022-08-03T00:48:04;24.00;51.60
3699;DHT22;1865;50.918;7.092;2022-08-03T00:50:33;23.90;51.70
3699;DHT22;1865;50.918;7.092;2022-08-03T00:53:05;23.90;52.00
3699;DHT22;1865;50.918;7.092;2022-08-03T00:55:35;23.80;51.90
3699;DHT22;1865;50.918;7.092;2022-08-03T00:58:03;23.90;51.60
3699;DHT22;1865;50.918;7.092;2022-08-03T01:00:32;23.90;51.60
3699;DHT22;1865;50.918;7.092;2022-08-03T01:02:58;23.80;51.90
3699;DHT22;1865;50.918;7.092;2022-08-03T01:05:25;23.80;52.10
3699;DHT22;1865;50.918;7.092;2022-08-03T01:16:30;23.80;51.80
3699;DHT22;1865;50.918;7.092;2022-08-03T01:19:07;23.80;51.90
3699;DHT22;1865;50.918;7.092;2022-08-03T01:24:55;23.70;52.20
3699;DHT22;1865;50.918;7.092;2022-08-03T01:30:24;23.60;52.30
3699;DHT22;1865;50.918;7.092;2022-08-03T01:32:59;23.60;52.60
3699;DHT22;1865;50.918;7.092;2022-08-03T01:35:31;23.50;52.60
3699;DHT22;1865;50.918;7.092;2022-08-03T01:38:02;23.50;52.80
3699;DHT22;1865;50.918;7.092;2022-08-03T01:40:30;23.50;52.80
3699;DHT22;1865;50.918;7.092;2022-08-03T01:43:01;23.50;52.70
3699;DHT22;1865;50.918;7.092;2022-08-03T01:45:29;23.50;53.00
3699;DHT22;1865;50.918;7.092;2022-08-03T01:47:59;23.50;52.80
3699;DHT22;1865;50.918;7.092;2022-08-03T01:50:28;23.50;52.80
3699;DHT22;1865;50.918;7.092;2022-08-03T01:52:56;23.40;52.80
3699;DHT22;1865;50.918;7.092;2022-08-03T01:55:22;23.40;53.00
3699;DHT22;1865;50.918;7.092;2022-08-03T01:57:50;23.40;53.30
3699;DHT22;1865;50.918;7.092;2022-08-03T02:00:16;23.30;53.30
3699;DHT22;1865;50.918;7.092;2022-08-03T02:02:46;23.30;53.40
3699;DHT22;1865;50.918;7.092;2022-08-03T02:05:14;23.30;53.50
3699;DHT22;1865;50.918;7.092;2022-08-03T02:07:41;23.20;53.30
3699;DHT22;1865;50.918;7.092;2022-08-03T02:10:08;23.20;53.20
3699;DHT22;1865;50.918;7.092;2022-08-03T02:12:36;23.10;53.60
3699;DHT22;1865;50.918;7.092;2022-08-03T02:15:04;23.00;53.80
3699;DHT22;1865;50.918;7.092;2022-08-03T02:17:31;23.10;53.60
3699;DHT22;1865;50.918;7.092;2022-08-03T02:19:59;23.10;53.60
3699;DHT22;1865;50.918;7.092;2022-08-03T02:22:29;23.10;53.60
3699;DHT22;1865;50.918;7.092;2022-08-03T02:24:55;23.10;53.70
3699;DHT22;1865;50.918;7.092;2022-08-03T02:27:24;23.00;53.90
3699;DHT22;1865;50.918;7.092;2022-08-03T02:29:54;22.90;54.00
3699;DHT22;1865;50.918;7.092;2022-08-03T02:32:29;22.90;54.20
3699;DHT22;1865;50.918;7.092;2022-08-03T02:34:57;22.80;54.40
3699;DHT22;1865;50.918;7.092;2022-08-03T02:37:28;22.80;54.30
3699;DHT22;1865;50.918;7.092;2022-08-03T02:40:00;22.80;54.50
3699;DHT22;1865;50.918;7.092;2022-08-03T02:42:27;22.80;54.40
3699;DHT22;1865;50.918;7.092;2022-08-03T02:44:56;22.80;54.50
3699;DHT22;1865;50.918;7.092;2022-08-03T02:50:48;22.80;54.30
3699;DHT22;1865;50.918;7.092;2022-08-03T02:53:17;22.70;54.80
3699;DHT22;1865;50.918;7.092;2022-08-03T02:55:45;22.70;54.70
3699;DHT22;1865;50.918;7.092;2022-08-03T02:58:12;22.70;54.60
3699;DHT22;1865;50.918;7.092;2022-08-03T03:00:40;22.70;54.70
3699;DHT22;1865;50.918;7.092;2022-08-03T03:03:09;22.70;54.60
3699;DHT22;1865;50.918;7.092;2022-08-03T03:05:37;22.70;54.20
3699;DHT22;1865;50.918;7.092;2022-08-03T03:08:04;22.70;54.50
3699;DHT22;1865;50.918;7.092;2022-08-03T03:10:30;22.60;54.80
3699;DHT22;1865;50.918;7.092;2022-08-03T03:12:58;22.60;54.80
3699;DHT22;1865;50.918;7.092;2022-08-03T03:15:32;22.60;54.60
3699;DHT22;1865;50.918;7.092;2022-08-03T03:18:01;22.50;54.60
3699;DHT22;1865;50.918;7.092;2022-08-03T03:20:29;22.60;54.60
3699;DHT22;1865;50.918;7.092;2022-08-03T03:22:55;22.60;54.70
3699;DHT22;1865;50.918;7.092;2022-08-03T03:25:23;22.50;54.60
3699;DHT22;1865;50.918;7.092;2022-08-03T03:27:53;22.60;54.60
3699;DHT22;1865;50.918;7.092;2022-08-03T03:30:19;22.60;54.60
3699;DHT22;1865;50.918;7.092;2022-08-03T03:32:45;22.50;54.60
3699;DHT22;1865;50.918;7.092;2022-08-03T03:35:12;22.50;54.60
3699;DHT22;1865;50.918;7.092;2022-08-03T03:37:38;22.40;54.90
3699;DHT22;1865;50.918;7.092;2022-08-03T03:40:06;22.40;55.10
3699;DHT22;1865;50.918;7.092;2022-08-03T03:42:36;22.30;55.20
3699;DHT22;1865;50.918;7.092;2022-08-03T03:45:06;22.20;55.50
3699;DHT22;1865;50.918;7.092;2022-08-03T03:47:33;22.30;54.80
3699;DHT22;1865;50.918;7.092;2022-08-03T03:50:04;22.40;54.80
3699;DHT22;1865;50.918;7.092;2022-08-03T03:52:31;22.40;54.70
3699;DHT22;1865;50.918;7.092;2022-08-03T03:54:58;22.30;54.70
3699;DHT22;1865;50.918;7.092;2022-08-03T03:57:24;22.20;55.00
3699;DHT22;1865;50.918;7.092;2022-08-03T03:59:50;22.30;55.00
3699;DHT22;1865;50.918;7.092;2022-08-03T04:02:17;22.20;54.80
3699;DHT22;1865;50.918;7.092;2022-08-03T04:04:42;22.20;54.80
3699;DHT22;1865;50.918;7.092;2022-08-03T04:07:57;22.20;54.80
3699;DHT22;1865;50.918;7.092;2022-08-03T04:10:40;22.30;54.80
3699;DHT22;1865;50.918;7.092;2022-08-03T04:13:24;22.30;55.00
3699;DHT22;1865;50.918;7.092;2022-08-03T04:15:52;22.20;54.90
3699;DHT22;1865;50.918;7.092;2022-08-03T04:18:20;22.20;54.90
3699;DHT22;1865;50.918;7.092;2022-08-03T04:20:47;22.20;55.00
3699;DHT22;1865;50.918;7.092;2022-08-03T04:23:20;22.10;54.90
3699;DHT22;1865;50.918;7.092;2022-08-03T04:25:48;22.10;55.10
3699;DHT22;1865;50.918;7.092;2022-08-03T04:28:14;22.00;55.10
3699;DHT22;1865;50.918;7.092;2022-08-03T04:30:44;22.00;55.00
3699;DHT22;1865;50.918;7.092;2022-08-03T04:33:15;22.10;55.20
3699;DHT22;1865;50.918;7.092;2022-08-03T04:35:44;22.10;55.40
3699;DHT22;1865;50.918;7.092;2022-08-03T04:38:13;22.10;55.20
3699;DHT22;1865;50.918;7.092;2022-08-03T04:40:43;22.10;55.40
3699;DHT22;1865;50.918;7.092;2022-08-03T04:43:12;22.20;55.40
3699;DHT22;1865;50.918;7.092;2022-08-03T04:45:40;22.20;55.40
3699;DHT22;1865;50.918;7.092;2022-08-03T04:48:07;22.20;55.10
3699;DHT22;1865;50.918;7.092;2022-08-03T04:50:34;22.10;55.50
3699;DHT22;1865;50.918;7.092;2022-08-03T04:53:00;22.20;55.40
3699;DHT22;1865;50.918;7.092;2022-08-03T04:55:30;22.20;54.90
3699;DHT22;1865;50.918;7.092;2022-08-03T04:57:59;22.30;54.80
3699;DHT22;1865;50.918;7.092;2022-08-03T05:00:26;22.30;54.70
3699;DHT22;1865;50.918;7.092;2022-08-03T05:02:52;22.40;54.90
3699;DHT22;1865;50.918;7.092;2022-08-03T05:05:20;22.40;54.60
3699;DHT22;1865;50.918;7.092;2022-08-03T05:07:50;22.40;54.60
3699;DHT22;1865;50.918;7.092;2022-08-03T05:10:16;22.50;54.50
3699;DHT22;1865;50.918;7.092;2022-08-03T05:12:43;22.60;54.30
3699;DHT22;1865;50.918;7.092;2022-08-03T05:15:11;22.70;54.50
3699;DHT22;1865;50.918;7.092;2022-08-03T05:17:37;22.70;54.30
3699;DHT22;1865;50.918;7.092;2022-08-03T05:20:04;22.70;54.10
3699;DHT22;1865;50.918;7.092;2022-08-03T05:22:30;22.70;54.30
3699;DHT22;1865;50.918;7.092;2022-08-03T05:24:55;22.70;54.40
3699;DHT22;1865;50.918;7.092;2022-08-03T05:27:22;22.70;54.30
3699;DHT22;1865;50.918;7.092;2022-08-03T05:29:49;22.80;53.90
3699;DHT22;1865;50.918;7.092;2022-08-03T05:32:16;22.90;53.40
3699;DHT22;1865;50.918;7.092;2022-08-03T05:34:43;23.00;53.00
3699;DHT22;1865;50.918;7.092;2022-08-03T05:37:09;23.00;52.90
3699;DHT22;1865;50.918;7.092;2022-08-03T05:39:34;23.10;52.70
3699;DHT22;1865;50.918;7.092;2022-08-03T05:42:00;23.20;52.50
3699;DHT22;1865;50.918;7.092;2022-08-03T05:44:26;23.30;52.30
3699;DHT22;1865;50.918;7.092;2022-08-03T05:46:53;23.40;51.90
3699;DHT22;1865;50.918;7.092;2022-08-03T05:49:19;23.50;51.70
3699;DHT22;1865;50.918;7.092;2022-08-03T05:51:45;23.60;51.50
3699;DHT22;1865;50.918;7.092;2022-08-03T05:54:11;23.70;51.30
3699;DHT22;1865;50.918;7.092;2022-08-03T05:56:37;23.80;51.10
3699;DHT22;1865;50.918;7.092;2022-08-03T05:59:07;23.90;50.90
3699;DHT22;1865;50.918;7.092;2022-08-03T06:01:34;24.00;50.50
3699;DHT22;1865;50.918;7.092;2022-08-03T06:04:00;24.10;50.20
3699;DHT22;1865;50.918;7.092;2022-08-03T06:06:26;24.20;50.00
3699;DHT22;1865;50.918;7.092;2022-08-03T06:08:54;24.20;49.60
3699;DHT22;1865;50.918;7.092;2022-08-03T06:11:19;24.30;49.30
3699;DHT22;1865;50.918;7.092;2022-08-03T06:13:47;24.30;49.20
3699;DHT22;1865;50.918;7.092;2022-08-03T06:16:12;24.40;48.80
3699;DHT22;1865;50.918;7.092;2022-08-03T06:18:40;24.50;48.20
3699;DHT22;1865;50.918;7.092;2022-08-03T06:21:08;24.60;48.00
3699;DHT22;1865;50.918;7.092;2022-08-03T06:23:40;24.70;47.80
3699;DHT22;1865;50.918;7.092;2022-08-03T06:26:07;24.80;47.40
3699;DHT22;1865;50.918;7.092;2022-08-03T06:28:37;24.90;47.70
3699;DHT22;1865;50.918;7.092;2022-08-03T06:31:04;25.00;46.70
3699;DHT22;1865;50.918;7.092;2022-08-03T06:33:40;25.10;46.50
3699;DHT22;1865;50.918;7.092;2022-08-03T06:36:05;25.10;46.30
3699;DHT22;1865;50.918;7.092;2022-08-03T06:38:31;25.20;46.30
3699;DHT22;1865;50.918;7.092;2022-08-03T06:40:56;25.30;46.10
3699;DHT22;1865;50.918;7.092;2022-08-03T06:43:22;25.40;46.00
3699;DHT22;1865;50.918;7.092;2022-08-03T06:45:48;25.60;45.60
3699;DHT22;1865;50.918;7.092;2022-08-03T06:48:13;25.60;45.10
3699;DHT22;1865;50.918;7.092;2022-08-03T06:50:41;25.60;45.20
3699;DHT22;1865;50.918;7.092;2022-08-03T06:53:08;25.80;45.10
3699;DHT22;1865;50.918;7.092;2022-08-03T06:55:34;25.90;44.90
3699;DHT22;1865;50.918;7.092;2022-08-03T06:58:01;26.00;44.80
3699;DHT22;1865;50.918;7.092;2022-08-03T07:00:28;26.10;44.50
3699;DHT22;1865;50.918;7.092;2022-08-03T07:02:58;26.20;44.10
3699;DHT22;1865;50.918;7.092;2022-08-03T07:05:23;26.20;43.90
3699;DHT22;1865;50.918;7.092;2022-08-03T07:07:49;26.40;43.80
3699;DHT22;1865;50.918;7.092;2022-08-03T07:10:16;26.40;43.80
3699;DHT22;1865;50.918;7.092;2022-08-03T07:12:42;26.50;43.10
3699;DHT22;1865;50.918;7.092;2022-08-03T07:15:09;26.50;43.00
3699;DHT22;1865;50.918;7.092;2022-08-03T07:17:36;26.60;42.60
3699;DHT22;1865;50.918;7.092;2022-08-03T07:20:06;26.70;42.70
3699;DHT22;1865;50.918;7.092;2022-08-03T07:22:34;26.90;42.50
3699;DHT22;1865;50.918;7.092;2022-08-03T07:25:00;27.00;42.70
3699;DHT22;1865;50.918;7.092;2022-08-03T07:27:26;27.10;42.20
3699;DHT22;1865;50.918;7.092;2022-08-03T07:29:53;27.10;41.90
3699;DHT22;1865;50.918;7.092;2022-08-03T07:32:21;27.20;41.70
3699;DHT22;1865;50.918;7.092;2022-08-03T07:34:48;27.40;41.50
3699;DHT22;1865;50.918;7.092;2022-08-03T07:37:13;27.50;41.50
3699;DHT22;1865;50.918;7.092;2022-08-03T07:39:39;27.50;41.30
3699;DHT22;1865;50.918;7.092;2022-08-03T07:42:09;27.50;40.90
3699;DHT22;1865;50.918;7.092;2022-08-03T07:44:36;27.60;40.60
3699;DHT22;1865;50.918;7.092;2022-08-03T07:47:01;27.70;40.50
3699;DHT22;1865;50.918;7.092;2022-08-03T07:49:29;27.80;40.20
3699;DHT22;1865;50.918;7.092;2022-08-03T07:51:56;27.90;40.10
3699;DHT22;1865;50.918;7.092;2022-08-03T07:54:41;27.90;39.80
3699;DHT22;1865;50.918;7.092;2022-08-03T07:57:08;28.00;40.30
3699;DHT22;1865;50.918;7.092;2022-08-03T07:59:34;28.10;40.40
3699;DHT22;1865;50.918;7.092;2022-08-03T08:02:05;28.20;40.20
3699;DHT22;1865;50.918;7.092;2022-08-03T08:04:33;28.30;40.00
3699;DHT22;1865;50.918;7.092;2022-08-03T08:06:59;28.30;40.00
3699;DHT22;1865;50.918;7.092;2022-08-03T08:09:25;28.40;39.50
3699;DHT22;1865;50.918;7.092;2022-08-03T08:11:51;28.60;39.20
3699;DHT22;1865;50.918;7.092;2022-08-03T08:14:16;28.70;39.00
3699;DHT22;1865;50.918;7.092;2022-08-03T08:16:43;28.90;38.60
3699;DHT22;1865;50.918;7.092;2022-08-03T08:19:09;29.20;38.30
3699;DHT22;1865;50.918;7.092;2022-08-03T08:21:35;29.30;37.70
3699;DHT22;1865;50.918;7.092;2022-08-03T08:24:01;29.50;37.80
3699;DHT22;1865;50.918;7.092;2022-08-03T08:26:28;29.50;37.80
3699;DHT22;1865;50.918;7.092;2022-08-03T08:28:53;29.50;37.30
3699;DHT22;1865;50.918;7.092;2022-08-03T08:31:19;29.60;36.80
3699;DHT22;1865;50.918;7.092;2022-08-03T08:33:46;29.70;37.30
3699;DHT22;1865;50.918;7.092;2022-08-03T08:36:13;29.80;37.00
3699;DHT22;1865;50.918;7.092;2022-08-03T08:38:40;29.80;35.80
3699;DHT22;1865;50.918;7.092;2022-08-03T08:41:08;29.80;35.90
3699;DHT22;1865;50.918;7.092;2022-08-03T08:43:35;30.00;36.60
3699;DHT22;1865;50.918;7.092;2022-08-03T08:46:10;30.00;37.10
3699;DHT22;1865;50.918;7.092;2022-08-03T08:48:43;30.10;36.70
3699;DHT22;1865;50.918;7.092;2022-08-03T08:51:12;30.10;36.50
3699;DHT22;1865;50.918;7.092;2022-08-03T08:53:41;30.20;35.60
3699;DHT22;1865;50.918;7.092;2022-08-03T08:56:12;30.30;35.50
3699;DHT22;1865;50.918;7.092;2022-08-03T08:58:43;30.50;35.20
3699;DHT22;1865;50.918;7.092;2022-08-03T09:01:12;30.60;34.50
3699;DHT22;1865;50.918;7.092;2022-08-03T09:03:39;30.70;33.50
3699;DHT22;1865;50.918;7.092;2022-08-03T09:06:06;30.80;34.00
3699;DHT22;1865;50.918;7.092;2022-08-03T09:08:32;30.90;33.50
3699;DHT22;1865;50.918;7.092;2022-08-03T09:10:58;30.90;34.10
3699;DHT22;1865;50.918;7.092;2022-08-03T09:13:24;30.90;33.90
3699;DHT22;1865;50.918;7.092;2022-08-03T09:16:17;30.90;33.60
3699;DHT22;1865;50.918;7.092;2022-08-03T09:18:46;31.00;33.60
3699;DHT22;1865;50.918;7.092;2022-08-03T09:21:23;31.10;33.70
3699;DHT22;1865;50.918;7.092;2022-08-03T09:23:51;31.20;32.80
3699;DHT22;1865;50.918;7.092;2022-08-03T09:26:25;31.20;32.20
3699;DHT22;1865;50.918;7.092;2022-08-03T09:29:09;31.40;32.30
3699;DHT22;1865;50.918;7.092;2022-08-03T09:31:40;31.40;32.40
3699;DHT22;1865;50.918;7.092;2022-08-03T09:34:09;31.50;33.00
3699;DHT22;1865;50.918;7.092;2022-08-03T09:36:43;31.60;33.30
3699;DHT22;1865;50.918;7.092;2022-08-03T09:39:13;31.50;32.50
3699;DHT22;1865;50.918;7.092;2022-08-03T09:41:40;31.50;34.60
3699;DHT22;1865;50.918;7.092;2022-08-03T09:44:07;31.50;33.40
3699;DHT22;1865;50.918;7.092;2022-08-03T09:46:47;31.50;33.70
3699;DHT22;1865;50.918;7.092;2022-08-03T09:49:14;31.60;33.60
3699;DHT22;1865;50.918;7.092;2022-08-03T09:51:40;31.70;34.50
3699;DHT22;1865;50.918;7.092;2022-08-03T09:54:06;31.80;33.20
3699;DHT22;1865;50.918;7.092;2022-08-03T09:56:44;31.80;33.10
3699;DHT22;1865;50.918;7.092;2022-08-03T09:59:11;31.90;32.80
3699;DHT22;1865;50.918;7.092;2022-08-03T10:01:38;31.80;33.30
3699;DHT22;1865;50.918;7.092;2022-08-03T10:04:11;32.00;33.30
3699;DHT22;1865;50.918;7.092;2022-08-03T10:06:39;32.20;32.50
3699;DHT22;1865;50.918;7.092;2022-08-03T10:09:09;32.20;32.20
3699;DHT22;1865;50.918;7.092;2022-08-03T10:11:37;32.30;31.80
3699;DHT22;1865;50.918;7.092;2022-08-03T10:14:08;32.30;31.80
3699;DHT22;1865;50.918;7.092;2022-08-03T10:16:37;32.40;31.30
3699;DHT22;1865;50.918;7.092;2022-08-03T10:19:06;32.50;30.90
3699;DHT22;1865;50.918;7.092;2022-08-03T10:21:34;32.50;31.40
3699;DHT22;1865;50.918;7.092;2022-08-03T10:24:08;32.50;30.00
3699;DHT22;1865;50.918;7.092;2022-08-03T10:26:37;32.60;29.20
3699;DHT22;1865;50.918;7.092;2022-08-03T10:29:05;32.60;29.10
3699;DHT22;1865;50.918;7.092;2022-08-03T10:31:38;32.70;29.80
3699;DHT22;1865;50.918;7.092;2022-08-03T10:34:08;32.80;29.00
3699;DHT22;1865;50.918;7.092;2022-08-03T10:36:37;32.80;29.10
3699;DHT22;1865;50.918;7.092;2022-08-03T10:39:05;33.00;30.50
3699;DHT22;1865;50.918;7.092;2022-08-03T10:41:38;33.00;29.50
3699;DHT22;1865;50.918;7.092;2022-08-03T10:44:13;33.10;30.40
3699;DHT22;1865;50.918;7.092;2022-08-03T10:46:41;33.10;29.80
3699;DHT22;1865;50.918;7.092;2022-08-03T10:49:08;33.20;29.10
3699;DHT22;1865;50.918;7.092;2022-08-03T10:51:36;33.20;29.80
3699;DHT22;1865;50.918;7.092;2022-08-03T10:54:02;33.30;30.00
3699;DHT22;1865;50.918;7.092;2022-08-03T10:59:19;33.30;29.70
3699;DHT22;1865;50.918;7.092;2022-08-03T11:02:04;33.30;29.70
3699;DHT22;1865;50.918;7.092;2022-08-03T11:04:32;33.40;29.60
3699;DHT22;1865;50.918;7.092;2022-08-03T11:07:20;33.40;29.40
3699;DHT22;1865;50.918;7.092;2022-08-03T11:09:52;33.40;29.50
3699;DHT22;1865;50.918;7.092;2022-08-03T11:12:31;33.40;29.30
3699;DHT22;1865;50.918;7.092;2022-08-03T11:15:06;33.70;29.30
3699;DHT22;1865;50.918;7.092;2022-08-03T11:17:33;33.80;28.90
3699;DHT22;1865;50.918;7.092;2022-08-03T11:19:59;34.10;29.10
3699;DHT22;1865;50.918;7.092;2022-08-03T11:22:48;34.10;27.80
3699;DHT22;1865;50.918;7.092;2022-08-03T11:25:16;34.20;28.50
3699;DHT22;1865;50.918;7.092;2022-08-03T11:27:43;34.50;27.40
3699;DHT22;1865;50.918;7.092;2022-08-03T11:30:24;34.70;26.80
3699;DHT22;1865;50.918;7.092;2022-08-03T11:32:51;34.90;26.50
3699;DHT22;1865;50.918;7.092;2022-08-03T11:35:26;35.00;26.80
3699;DHT22;1865;50.918;7.092;2022-08-03T11:45:36;35.10;27.00
3699;DHT22;1865;50.918;7.092;2022-08-03T11:48:12;35.40;26.60
3699;DHT22;1865;50.918;7.092;2022-08-03T11:50:40;35.70;26.20
3699;DHT22;1865;50.918;7.092;2022-08-03T11:53:13;35.80;25.90
3699;DHT22;1865;50.918;7.092;2022-08-03T11:55:40;35.70;26.10
3699;DHT22;1865;50.918;7.092;2022-08-03T11:58:08;35.70;25.90
3699;DHT22;1865;50.918;7.092;2022-08-03T12:00:33;35.70;26.10
3699;DHT22;1865;50.918;7.092;2022-08-03T12:03:07;35.60;26.10
3699;DHT22;1865;50.918;7.092;2022-08-03T12:05:52;35.60;26.50
3699;DHT22;1865;50.918;7.092;2022-08-03T12:10:52;35.60;26.10
3699;DHT22;1865;50.918;7.092;2022-08-03T12:13:19;35.70;26.20
3699;DHT22;1865;50.918;7.092;2022-08-03T12:15:56;35.70;25.80
3699;DHT22;1865;50.918;7.092;2022-08-03T12:18:23;35.70;26.20
3699;DHT22;1865;50.918;7.092;2022-08-03T12:20:54;35.90;27.00
3699;DHT22;1865;50.918;7.092;2022-08-03T12:23:28;35.90;25.70
3699;DHT22;1865;50.918;7.092;2022-08-03T12:26:08;35.80;25.30
3699;DHT22;1865;50.918;7.092;2022-08-03T12:28:34;35.90;25.30
3699;DHT22;1865;50.918;7.092;2022-08-03T12:31:06;36.10;25.50
3699;DHT22;1865;50.918;7.092;2022-08-03T12:34:03;36.20;25.40
3699;DHT22;1865;50.918;7.092;2022-08-03T12:36:32;36.40;25.10
3699;DHT22;1865;50.918;7.092;2022-08-03T12:39:01;36.50;24.70
3699;DHT22;1865;50.918;7.092;2022-08-03T12:41:31;36.80;24.80
3699;DHT22;1865;50.918;7.092;2022-08-03T12:43:58;36.70;24.40
3699;DHT22;1865;50.918;7.092;2022-08-03T12:46:30;36.80;23.90
3699;DHT22;1865;50.918;7.092;2022-08-03T12:49:10;37.00;24.80
3699;DHT22;1865;50.918;7.092;2022-08-03T12:54:19;36.90;24.00
3699;DHT22;1865;50.918;7.092;2022-08-03T12:57:11;37.00;24.60
3699;DHT22;1865;50.918;7.092;2022-08-03T12:59:42;37.00;24.70
3699;DHT22;1865;50.918;7.092;2022-08-03T13:02:15;37.00;24.80
3699;DHT22;1865;50.918;7.092;2022-08-03T13:04:42;37.10;24.50
3699;DHT22;1865;50.918;7.092;2022-08-03T13:07:09;37.20;24.60
3699;DHT22;1865;50.918;7.092;2022-08-03T13:09:42;37.50;24.20
3699;DHT22;1865;50.918;7.092;2022-08-03T13:12:10;38.10;23.40
3699;DHT22;1865;50.918;7.092;2022-08-03T13:14:38;38.40;23.20
3699;DHT22;1865;50.918;7.092;2022-08-03T13:17:04;38.90;22.50
3699;DHT22;1865;50.918;7.092;2022-08-03T13:19:36;38.80;22.60
3699;DHT22;1865;50.918;7.092;2022-08-03T13:22:18;38.70;21.90
3699;DHT22;1865;50.918;7.092;2022-08-03T13:24:46;39.40;22.20
3699;DHT22;1865;50.918;7.092;2022-08-03T13:27:12;40.50;21.20
3699;DHT22;1865;50.918;7.092;2022-08-03T13:29:38;41.00;20.40
3699;DHT22;1865;50.918;7.092;2022-08-03T13:32:06;41.90;20.00
3699;DHT22;1865;50.918;7.092;2022-08-03T13:34:34;42.70;19.50
3699;DHT22;1865;50.918;7.092;2022-08-03T13:37:01;42.80;19.00
3699;DHT22;1865;50.918;7.092;2022-08-03T13:39:28;43.30;19.00
3699;DHT22;1865;50.918;7.092;2022-08-03T13:41:54;44.10;18.70
3699;DHT22;1865;50.918;7.092;2022-08-03T13:44:20;44.60;18.10
3699;DHT22;1865;50.918;7.092;2022-08-03T13:46:46;44.80;17.80
3699;DHT22;1865;50.918;7.092;2022-08-03T13:49:11;45.60;17.80
3699;DHT22;1865;50.918;7.092;2022-08-03T13:51:38;46.20;17.50
3699;DHT22;1865;50.918;7.092;2022-08-03T13:54:04;46.50;17.10
3699;DHT22;1865;50.918;7.092;2022-08-03T13:56:31;46.60;16.90
3699;DHT22;1865;50.918;7.092;2022-08-03T13:58:57;46.70;17.10
3699;DHT22;1865;50.918;7.092;2022-08-03T14:01:24;46.40;17.00
3699;DHT22;1865;50.918;7.092;2022-08-03T14:03:51;45.30;17.50
3699;DHT22;1865;50.918;7.092;2022-08-03T14:06:19;44.70;17.80
3699;DHT22;1865;50.918;7.092;2022-08-03T14:08:45;44.90;17.90
3699;DHT22;1865;50.918;7.092;2022-08-03T14:11:15;45.70;17.70
3699;DHT22;1865;50.918;7.092;2022-08-03T14:13:41;46.80;17.00
3699;DHT22;1865;50.918;7.092;2022-08-03T14:16:08;47.80;16.50
3699;DHT22;1865;50.918;7.092;2022-08-03T14:18:35;48.80;16.20
3699;DHT22;1865;50.918;7.092;2022-08-03T14:21:02;49.30;16.00
3699;DHT22;1865;50.918;7.092;2022-08-03T14:23:29;48.80;15.80
3699;DHT22;1865;50.918;7.092;2022-08-03T14:25:57;47.50;16.70
3699;DHT22;1865;50.918;7.092;2022-08-03T14:28:25;45.70;16.80
3699;DHT22;1865;50.918;7.092;2022-08-03T14:30:52;43.50;18.10
3699;DHT22;1865;50.918;7.092;2022-08-03T14:33:18;42.30;19.20
3699;DHT22;1865;50.918;7.092;2022-08-03T14:35:45;41.40;19.70
3699;DHT22;1865;50.918;7.092;2022-08-03T14:38:32;40.60;20.10
3699;DHT22;1865;50.918;7.092;2022-08-03T14:40:58;39.80;20.40
3699;DHT22;1865;50.918;7.092;2022-08-03T14:43:24;39.10;21.50
3699;DHT22;1865;50.918;7.092;2022-08-03T14:45:53;38.60;21.50
3699;DHT22;1865;50.918;7.092;2022-08-03T14:48:25;38.50;22.00
3699;DHT22;1865;50.918;7.092;2022-08-03T14:50:51;38.40;22.30
3699;DHT22;1865;50.918;7.092;2022-08-03T14:53:21;38.20;23.50
3699;DHT22;1865;50.918;7.092;2022-08-03T14:55:47;38.00;22.80
3699;DHT22;1865;50.918;7.092;2022-08-03T14:58:15;37.80;22.50
3699;DHT22;1865;50.918;7.092;2022-08-03T15:00:41;37.70;22.70
3699;DHT22;1865;50.918;7.092;2022-08-03T15:03:06;37.60;22.60
3699;DHT22;1865;50.918;7.092;2022-08-03T15:05:33;37.60;22.70
3699;DHT22;1865;50.918;7.092;2022-08-03T15:07:59;37.60;23.00
3699;DHT22;1865;50.918;7.092;2022-08-03T15:10:25;37.80;23.20
3699;DHT22;1865;50.918;7.092;2022-08-03T15:12:51;37.60;22.80
3699;DHT22;1865;50.918;7.092;2022-08-03T15:15:18;37.50;23.10
3699;DHT22;1865;50.918;7.092;2022-08-03T15:17:46;37.50;23.70
3699;DHT22;1865;50.918;7.092;2022-08-03T15:20:11;37.60;23.50
3699;DHT22;1865;50.918;7.092;2022-08-03T15:22:39;37.50;22.90
3699;DHT22;1865;50.918;7.092;2022-08-03T15:25:08;37.30;23.60
3699;DHT22;1865;50.918;7.092;2022-08-03T15:27:34;37.40;23.10
3699;DHT22;1865;50.918;7.092;2022-08-03T15:30:01;37.10;23.00
3699;DHT22;1865;50.918;7.092;2022-08-03T15:32:31;37.10;23.00
3699;DHT22;1865;50.918;7.092;2022-08-03T15:34:57;37.10;23.10
3699;DHT22;1865;50.918;7.092;2022-08-03T15:37:22;37.00;23.60
3699;DHT22;1865;50.918;7.092;2022-08-03T15:39:49;37.10;23.30
3699;DHT22;1865;50.918;7.092;2022-08-03T15:42:15;37.10;23.60
3699;DHT22;1865;50.918;7.092;2022-08-03T15:44:40;37.10;23.30
3699;DHT22;1865;50.918;7.092;2022-08-03T15:47:08;37.10;23.20
3699;DHT22;1865;50.918;7.092;2022-08-03T15:49:33;37.00;23.20
3699;DHT22;1865;50.918;7.092;2022-08-03T15:52:03;36.90;22.90
3699;DHT22;1865;50.918;7.092;2022-08-03T15:54:29;36.70;23.10
3699;DHT22;1865;50.918;7.092;2022-08-03T15:56:55;36.70;23.40
3699;DHT22;1865;50.918;7.092;2022-08-03T15:59:21;36.70;23.30
3699;DHT22;1865;50.918;7.092;2022-08-03T16:01:47;36.70;23.10
3699;DHT22;1865;50.918;7.092;2022-08-03T16:04:13;36.70;23.40
3699;DHT22;1865;50.918;7.092;2022-08-03T16:06:38;36.70;23.20
3699;DHT22;1865;50.918;7.092;2022-08-03T16:09:06;36.60;23.40
3699;DHT22;1865;50.918;7.092;2022-08-03T16:11:33;36.70;24.10
3699;DHT22;1865;50.918;7.092;2022-08-03T16:14:02;36.70;23.50
3699;DHT22;1865;50.918;7.092;2022-08-03T16:16:27;36.70;23.50
3699;DHT22;1865;50.918;7.092;2022-08-03T16:18:53;36.70;23.70
3699;DHT22;1865;50.918;7.092;2022-08-03T16:21:19;36.70;24.10
3699;DHT22;1865;50.918;7.092;2022-08-03T16:23:46;36.80;23.90
3699;DHT22;1865;50.918;7.092;2022-08-03T16:26:11;36.80;24.30
3699;DHT22;1865;50.918;7.092;2022-08-03T16:28:38;36.90;24.50
3699;DHT22;1865;50.918;7.092;2022-08-03T16:31:04;36.70;24.00
3699;DHT22;1865;50.918;7.092;2022-08-03T16:33:30;36.60;24.50
3699;DHT22;1865;50.918;7.092;2022-08-03T16:35:56;36.60;24.30
3699;DHT22;1865;50.918;7.092;2022-08-03T16:38:24;36.70;24.00
3699;DHT22;1865;50.918;7.092;2022-08-03T16:40:50;36.70;24.30
3699;DHT22;1865;50.918;7.092;2022-08-03T16:43:16;36.70;24.70
3699;DHT22;1865;50.918;7.092;2022-08-03T16:45:42;36.60;24.90